Terminal Aerodrome Forecast
Issued by NWS

Home | Current Version | Previous Version | Text Only | Print | Product List | Glossary Off
Versions: 1 2 3 4 5 6 7 8 9 10 11 12 13 14 15 16 17

983
FTUS43 KMPX 221124
TAFAXN
TAF
KAXN 221124Z 2212/2312 18005KT P6SM SCT250
     FM221500 18010KT P6SM SCT070 BKN200
     FM221800 18014G20KT P6SM SCT040 OVC080
     FM222300 17006KT P6SM OVC040
     FM230300 22006KT P6SM SCT035 SCT150
     FM230700 30007KT P6SM FEW025=

USA.gov is the U.S. government's official web portal to all federal, state and local government web resources and services.